Time;durP1;ratioP1;P1;durP2;ratioP2;P2;SDS_P1;SDS_P2;PMS_P1;PMS_P2;Temp;Humidity;BMP_temperature;BMP_pressure;BME280_temperature;BME280_humidity;BME280_pressure;Samples;Min_cycle;Max_cycle;Signal;HPM_P1;HPM_P2
2022/11/25 00:01:07;;;;;;;0.10;0.10;;;3.10;99.90;;;;;;4982958;28;20056;-74
2022/11/25 00:03:34;;;;;;;2.95;2.85;;;3.00;99.90;;;;;;5000439;28;20053;-75
2022/11/25 00:06:20;;;;;;;1.98;1.95;;;2.80;99.90;;;;;;4983114;28;20060;-75
2022/11/25 00:08:49;;;;;;;0.10;0.10;;;2.90;99.90;;;;;;5001106;28;20014;-74
2022/11/25 00:11:16;;;;;;;0.00;0.00;;;2.80;99.90;;;;;;4982691;28;20033;-75
2022/11/25 00:13:42;;;;;;;0.10;0.10;;;2.90;99.90;;;;;;5000761;28;20021;-75
2022/11/25 00:16:12;;;;;;;1.73;1.63;;;2.80;99.90;;;;;;4999979;28;20080;-74
2022/11/25 00:18:39;;;;;;;0.68;0.68;;;2.80;99.90;;;;;;4999872;28;20104;-75
2022/11/25 00:21:07;;;;;;;10.80;7.95;;;2.80;99.90;;;;;;4999764;28;20291;-75
2022/11/25 00:23:32;;;;;;;2.42;2.33;;;2.80;99.90;;;;;;4999314;28;20341;-75
2022/11/25 00:26:07;;;;;;;11.90;11.38;;;2.90;99.90;;;;;;4999684;28;20319;-75
2022/11/25 00:28:33;;;;;;;6.75;6.45;;;2.90;99.90;;;;;;4999542;28;20037;-75
2022/11/25 00:31:15;;;;;;;0.57;0.57;;;2.80;99.90;;;;;;4999937;28;20420;-75
2022/11/25 00:33:41;;;;;;;42.60;40.55;;;2.90;99.90;;;;;;5000463;28;20045;-75
2022/11/25 00:36:24;;;;;;;0.05;0.05;;;2.90;99.90;;;;;;5000251;28;20022;-75
2022/11/25 00:38:58;;;;;;;0.20;0.20;;;2.90;99.90;;;;;;5000196;28;20022;-75
2022/11/25 00:46:56;;;;;;;20.15;18.13;;;3.00;99.90;;;;;;5000703;28;20164;-75
2022/11/25 00:49:21;;;;;;;1.20;1.20;;;3.00;99.90;;;;;;4999610;28;20121;-75
2022/11/25 00:51:47;;;;;;;0.20;0.20;;;3.00;99.90;;;;;;4999983;28;20036;-74
2022/11/25 00:54:13;;;;;;;3.30;3.13;;;3.00;99.90;;;;;;4999773;28;20539;-75
2022/11/25 00:56:39;;;;;;;36.72;32.80;;;2.90;99.90;;;;;;4999404;28;20671;-77
2022/11/25 00:59:06;;;;;;;0.00;0.00;;;2.90;99.90;;;;;;4999577;28;20029;-75
2022/11/25 01:01:32;;;;;;;0.03;0.03;;;2.90;99.90;;;;;;4981201;28;20064;-75
2022/11/25 01:03:57;;;;;;;5.53;4.15;;;2.90;99.90;;;;;;4999356;28;20033;-75
2022/11/25 01:06:24;;;;;;;0.73;0.73;;;2.80;99.90;;;;;;4999061;28;20042;-74
2022/11/25 01:08:50;;;;;;;0.05;0.05;;;2.80;99.90;;;;;;4999893;28;20022;-75
2022/11/25 01:11:18;;;;;;;0.30;0.30;;;2.80;99.90;;;;;;4999528;28;20044;-75
2022/11/25 01:13:44;;;;;;;0.08;0.08;;;2.90;99.90;;;;;;4999202;28;20670;-74
2022/11/25 01:16:12;;;;;;;0.00;0.00;;;2.90;99.90;;;;;;4981452;28;20030;-75
2022/11/25 01:18:38;;;;;;;6.22;5.93;;;2.90;99.90;;;;;;4999102;28;20036;-75
2022/11/25 01:21:09;;;;;;;0.10;0.10;;;2.90;99.90;;;;;;4999247;28;20160;-74
2022/11/25 01:23:35;;;;;;;0.10;0.10;;;2.90;99.90;;;;;;4999244;28;20581;-75
2022/11/25 01:26:04;;;;;;;0.65;0.65;;;2.90;99.90;;;;;;4981184;28;20041;-75
2022/11/25 01:28:30;;;;;;;0.00;0.00;;;;;;;;;;4999952;28;20335;-74
2022/11/25 01:31:08;;;;;;;0.00;0.00;;;2.90;99.90;;;;;;4999841;28;20029;-75
2022/11/25 01:33:34;;;;;;;0.10;0.10;;;2.90;99.90;;;;;;4999386;28;20033;-75
2022/11/25 01:36:07;;;;;;;8.43;8.18;;;2.90;99.90;;;;;;4981870;28;20425;-75
2022/11/25 01:38:34;;;;;;;0.00;0.00;;;2.90;99.90;;;;;;5000978;28;20029;-75
2022/11/25 01:41:00;;;;;;;0.20;0.20;;;2.90;99.90;;;;;;5001783;28;20421;-76
2022/11/25 01:43:27;;;;;;;0.00;0.00;;;2.90;99.90;;;;;;4990078;28;20018;-75
2022/11/25 01:45:55;;;;;;;0.10;0.10;;;2.90;99.90;;;;;;5008369;28;20237;-75
2022/11/25 01:48:27;;;;;;;0.65;0.65;;;2.90;99.90;;;;;;5006453;28;20091;-75
2022/11/25 01:50:54;;;;;;;0.10;0.10;;;2.90;99.90;;;;;;4987927;28;20082;-75
2022/11/25 01:53:21;;;;;;;2.53;2.47;;;2.90;99.90;;;;;;5001271;28;20024;-75
2022/11/25 01:55:52;;;;;;;0.00;0.00;;;2.90;99.90;;;;;;4999723;28;20037;-74
2022/11/25 01:58:25;;;;;;;55.78;50.78;;;2.90;99.90;;;;;;4998994;28;20022;-75
2022/11/25 02:00:51;;;;;;;0.10;0.10;;;3.00;99.90;;;;;;4999001;28;20088;-75
2022/11/25 02:03:21;;;;;;;10.45;9.80;;;3.00;99.90;;;;;;4998894;28;20045;-75
2022/11/25 02:05:54;;;;;;;0.05;0.05;;;3.00;99.90;;;;;;4999315;28;20138;-75
2022/11/25 02:08:23;;;;;;;0.10;0.10;;;3.00;99.90;;;;;;4998610;28;20379;-75
2022/11/25 02:10:50;;;;;;;0.63;0.63;;;2.20;99.90;;;;;;4998736;28;20528;-75
2022/11/25 02:13:16;;;;;;;6.75;6.43;;;3.00;99.90;;;;;;4999201;28;20026;-75
2022/11/25 02:15:41;;;;;;;2.60;2.50;;;3.10;99.90;;;;;;4999181;28;20675;-75
2022/11/25 02:18:08;;;;;;;0.10;0.10;;;3.10;99.90;;;;;;4983442;28;20060;-74
2022/11/25 02:20:34;;;;;;;0.05;0.05;;;3.10;99.90;;;;;;5003259;28;20165;-75
2022/11/25 02:23:25;;;;;;;22.23;21.02;;;3.00;99.90;;;;;;5002518;28;20113;-75
2022/11/25 02:25:51;;;;;;;0.00;0.00;;;3.00;99.90;;;;;;5002835;28;20034;-74
2022/11/25 02:28:22;;;;;;;0.03;0.03;;;3.00;99.90;;;;;;4984795;28;20219;-75
2022/11/25 02:30:48;;;;;;;2.47;2.38;;;3.10;99.90;;;;;;5002116;28;20048;-75
2022/11/25 02:33:15;;;;;;;0.17;0.17;;;3.00;99.90;;;;;;5002156;28;20136;-75
2022/11/25 02:35:45;;;;;;;0.63;0.63;;;2.70;99.90;;;;;;5002651;28;20032;-74
2022/11/25 02:38:29;;;;;;;0.13;0.13;;;2.70;99.90;;;;;;5002189;28;20663;-75
2022/11/25 02:41:19;;;;;;;0.05;0.05;;;2.50;99.90;;;;;;5001969;28;20018;-75
2022/11/25 02:43:45;;;;;;;0.10;0.10;;;2.70;99.90;;;;;;5002263;28;20145;-75
2022/11/25 02:46:17;;;;;;;0.00;0.00;;;2.60;99.90;;;;;;5001707;28;20018;-74
2022/11/25 02:48:43;;;;;;;0.65;0.65;;;2.60;99.90;;;;;;4983781;28;20386;-75
2022/11/25 02:51:16;;;;;;;0.00;0.00;;;2.60;99.90;;;;;;5001951;28;20034;-74
2022/11/25 02:53:42;;;;;;;0.00;0.00;;;2.50;99.90;;;;;;5001399;28;20030;-75
2022/11/25 02:56:11;;;;;;;0.57;0.57;;;2.40;99.90;;;;;;5001599;28;20557;-74
2022/11/25 02:58:36;;;;;;;7.43;7.00;;;2.40;99.90;;;;;;5001701;28;20034;-75
2022/11/25 03:01:02;;;;;;;0.28;0.28;;;2.40;99.90;;;;;;5001289;28;20088;-74
2022/11/25 03:03:28;;;;;;;0.03;0.03;;;2.40;99.90;;;;;;5001818;28;20018;-74
2022/11/25 03:05:54;;;;;;;0.40;0.40;;;2.40;99.90;;;;;;5001317;28;20050;-74
2022/11/25 03:08:20;;;;;;;0.10;0.10;;;2.40;99.90;;;;;;5001162;28;20028;-74
2022/11/25 03:10:45;;;;;;;5.60;5.13;;;2.40;99.90;;;;;;5001966;28;20185;-75
2022/11/25 03:13:12;;;;;;;0.30;0.30;;;2.40;99.90;;;;;;5002308;28;20018;-74
2022/11/25 03:15:38;;;;;;;1.92;1.85;;;2.40;99.90;;;;;;5000991;28;20057;-74
2022/11/25 03:18:04;;;;;;;0.10;0.10;;;2.30;99.90;;;;;;4983815;28;20065;-75
2022/11/25 03:20:30;;;;;;;0.10;0.10;;;2.30;99.90;;;;;;5001644;28;20032;-75
2022/11/25 03:22:56;;;;;;;0.00;0.00;;;2.30;99.90;;;;;;5001405;28;20464;-74
2022/11/25 03:25:22;;;;;;;0.10;0.10;;;1.60;99.90;;;;;;5001283;28;20058;-74
2022/11/25 03:27:48;;;;;;;0.80;0.80;;;;;;;;;;5002004;28;20109;-74
2022/11/25 03:30:19;;;;;;;0.00;0.00;;;2.40;99.90;;;;;;4999720;28;20022;-74
2022/11/25 03:32:45;;;;;;;22.77;21.85;;;2.50;99.90;;;;;;5000697;28;20057;-75
2022/11/25 03:35:12;;;;;;;0.10;0.10;;;2.50;99.90;;;;;;4983823;28;20573;-74
2022/11/25 03:37:38;;;;;;;0.10;0.10;;;2.60;99.90;;;;;;5000778;28;20458;-75
2022/11/25 03:40:05;;;;;;;0.00;0.00;;;5.90;99.90;;;;;;4982795;28;20045;-76
2022/11/25 03:42:32;;;;;;;4.82;4.63;;;2.70;99.90;;;;;;5001262;28;20079;-75
2022/11/25 03:44:58;;;;;;;0.38;0.38;;;;;;;;;;5001235;28;20021;-75
2022/11/25 03:47:24;;;;;;;0.10;0.10;;;2.70;99.90;;;;;;5000888;28;20137;-75
2022/11/25 03:49:50;;;;;;;0.25;0.25;;;2.50;99.90;;;;;;5001373;28;20555;-75
2022/11/25 03:52:15;;;;;;;21.63;19.88;;;2.60;99.90;;;;;;5000988;28;20413;-75
2022/11/25 03:54:41;;;;;;;0.25;0.25;;;2.70;99.90;;;;;;5000891;28;20034;-75
2022/11/25 03:57:07;;;;;;;0.15;0.15;;;2.80;99.90;;;;;;5001354;28;20260;-77
2022/11/25 03:59:33;;;;;;;0.20;0.20;;;2.80;99.90;;;;;;4984868;28;20030;-75
2022/11/25 04:01:59;;;;;;;27.85;20.27;;;2.90;99.90;;;;;;5000850;28;20022;-75
2022/11/25 04:04:25;;;;;;;0.10;0.10;;;3.00;99.90;;;;;;5001361;28;20026;-74
2022/11/25 04:06:50;;;;;;;0.10;0.10;;;3.10;99.90;;;;;;5001369;28;20053;-74
2022/11/25 04:09:16;;;;;;;0.80;0.77;;;3.10;99.90;;;;;;4984504;28;20065;-75
2022/11/25 04:14:26;;;;;;;0.10;0.10;;;3.20;99.90;;;;;;5000987;28;20060;-75
2022/11/25 04:16:52;;;;;;;0.08;0.08;;;3.20;99.90;;;;;;5000953;28;20065;-75
2022/11/25 04:19:18;;;;;;;0.00;0.00;;;3.20;99.90;;;;;;5000813;28;20030;-75
2022/11/25 04:21:44;;;;;;;0.10;0.10;;;2.50;99.90;;;;;;5001093;28;20492;-75
2022/11/25 04:24:10;;;;;;;0.10;0.10;;;3.10;99.90;;;;;;5000648;28;20331;-74
2022/11/25 04:26:35;;;;;;;0.00;0.00;;;3.10;99.90;;;;;;5000550;28;20029;-75
2022/11/25 04:29:01;;;;;;;0.10;0.10;;;3.10;99.90;;;;;;5000587;28;20030;-75
2022/11/25 04:31:27;;;;;;;0.10;0.10;;;3.10;99.90;;;;;;5001009;28;20058;-75
2022/11/25 04:33:53;;;;;;;0.10;0.10;;;3.10;99.90;;;;;;4984288;28;20359;-76
2022/11/25 04:36:19;;;;;;;18.98;7.22;;;3.10;99.90;;;;;;5002628;28;20037;-75
2022/11/25 04:38:44;;;;;;;31.90;20.48;;;3.10;99.90;;;;;;4983465;28;20429;-75
2022/11/25 04:41:10;;;;;;;2.30;2.25;;;3.10;99.90;;;;;;5001588;28;20036;-75
2022/11/25 04:43:36;;;;;;;0.47;0.47;;;3.00;99.90;;;;;;5003488;28;20022;-74
2022/11/25 04:46:02;;;;;;;14.43;13.70;;;2.70;99.90;;;;;;4985793;28;20108;-75
2022/11/25 04:48:28;;;;;;;0.10;0.10;;;2.80;99.90;;;;;;5005140;28;20414;-75
2022/11/25 04:50:55;;;;;;;0.10;0.10;;;2.80;99.90;;;;;;4985454;28;20332;-75
2022/11/25 04:53:21;;;;;;;0.20;0.20;;;2.80;99.90;;;;;;5005422;28;20304;-75
2022/11/25 04:55:46;;;;;;;0.60;0.60;;;2.90;99.90;;;;;;5007942;28;20083;-74
2022/11/25 04:58:13;;;;;;;0.00;0.00;;;2.90;99.90;;;;;;4990327;28;20026;-74
2022/11/25 05:00:39;;;;;;;0.10;0.10;;;2.90;99.90;;;;;;4988997;28;20470;-75
2022/11/25 05:03:06;;;;;;;0.00;0.00;;;3.00;99.90;;;;;;5006274;28;20791;-75
2022/11/25 05:05:31;;;;;;;0.10;0.10;;;2.90;99.90;;;;;;5004996;28;20033;-75
2022/11/25 05:07:57;;;;;;;23.42;21.55;;;2.90;99.90;;;;;;5006097;28;20508;-75
2022/11/25 05:10:23;;;;;;;0.15;0.10;;;2.90;99.90;;;;;;5007143;28;20030;-75
2022/11/25 05:12:49;;;;;;;15.25;13.70;;;2.90;99.90;;;;;;5004714;28;20041;-75
2022/11/25 05:15:14;;;;;;;0.10;0.10;;;2.90;99.90;;;;;;5000779;28;20097;-75
2022/11/25 05:17:40;;;;;;;0.10;0.10;;;3.00;99.90;;;;;;5000081;28;20034;-75
2022/11/25 05:20:08;;;;;;;2.67;2.38;;;2.90;99.90;;;;;;5000564;28;20428;-75
2022/11/25 05:22:34;;;;;;;0.82;0.82;;;3.00;99.90;;;;;;4999704;28;20026;-75
2022/11/25 05:25:00;;;;;;;0.30;0.30;;;3.00;99.90;;;;;;4999966;28;20026;-76
2022/11/25 05:27:26;;;;;;;0.10;0.10;;;3.00;99.90;;;;;;5000418;28;20026;-75
2022/11/25 05:29:52;;;;;;;0.08;0.08;;;2.70;99.90;;;;;;4999266;28;20022;-75
2022/11/25 05:32:18;;;;;;;0.10;0.10;;;2.70;99.90;;;;;;4999348;28;20034;-76
2022/11/25 05:34:44;;;;;;;0.10;0.10;;;2.60;99.90;;;;;;4999776;28;20025;-75
2022/11/25 05:37:12;;;;;;;0.47;0.47;;;2.50;99.90;;;;;;4999425;28;20110;-75
2022/11/25 05:39:38;;;;;;;0.10;0.10;;;2.30;99.90;;;;;;4999298;28;20486;-75
2022/11/25 05:42:04;;;;;;;0.00;0.00;;;2.20;99.90;;;;;;4981667;28;20239;-74
2022/11/25 05:44:30;;;;;;;0.10;0.10;;;2.20;99.90;;;;;;4999344;28;20022;-75
2022/11/25 05:46:56;;;;;;;0.00;0.00;;;;;;;;;;4999000;28;20049;-75
2022/11/25 05:49:21;;;;;;;0.08;0.08;;;2.30;99.90;;;;;;4999202;28;20109;-75
2022/11/25 05:51:47;;;;;;;0.68;0.68;;;2.10;99.90;;;;;;4999435;28;20121;-75
2022/11/25 05:54:13;;;;;;;0.10;0.10;;;2.10;99.90;;;;;;5002695;28;20242;-75
2022/11/25 05:56:39;;;;;;;7.10;6.85;;;2.20;99.90;;;;;;5002741;28;20310;-74
2022/11/25 05:59:06;;;;;;;0.00;0.00;;;2.10;99.90;;;;;;5002953;28;20022;-74
2022/11/25 06:01:32;;;;;;;4.25;3.92;;;1.90;99.90;;;;;;5002218;28;20377;-75
2022/11/25 06:04:02;;;;;;;0.10;0.10;;;1.90;99.90;;;;;;5003135;28;20029;-76
2022/11/25 06:06:29;;;;;;;0.10;0.10;;;2.00;99.90;;;;;;4985268;28;20471;-74
2022/11/25 06:08:55;;;;;;;0.65;0.65;;;1.90;99.90;;;;;;5002697;28;20570;-75
2022/11/25 06:11:21;;;;;;;0.00;0.00;;;1.80;99.90;;;;;;4985229;28;20042;-75
2022/11/25 06:13:47;;;;;;;0.10;0.10;;;1.90;99.90;;;;;;4984601;28;20036;-74
2022/11/25 06:16:21;;;;;;;31.35;29.15;;;1.80;99.90;;;;;;4984624;28;20026;-75
2022/11/25 06:18:46;;;;;;;0.20;0.20;;;1.80;99.90;;;;;;5002990;28;20395;-74
2022/11/25 06:21:13;;;;;;;0.10;0.10;;;1.80;99.90;;;;;;4985138;28;20117;-75
2022/11/25 06:23:39;;;;;;;0.10;0.10;;;1.80;99.90;;;;;;5002830;28;20018;-75
2022/11/25 06:26:15;;;;;;;0.30;0.30;;;1.80;99.90;;;;;;5002582;28;20141;-75
2022/11/25 06:28:42;;;;;;;0.22;0.22;;;1.80;99.90;;;;;;5002640;28;20033;-74
2022/11/25 06:31:10;;;;;;;4.00;3.85;;;1.90;99.90;;;;;;5001902;28;20038;-75
2022/11/25 06:33:36;;;;;;;0.10;0.10;;;2.00;99.90;;;;;;5002475;28;20044;-74
2022/11/25 06:36:04;;;;;;;3.22;3.13;;;2.10;99.90;;;;;;4985660;28;20058;-74
2022/11/25 06:38:30;;;;;;;0.70;0.70;;;2.10;99.90;;;;;;5001549;28;20761;-76
2022/11/25 06:41:04;;;;;;;0.10;0.10;;;2.20;99.90;;;;;;4984248;28;20107;-74
2022/11/25 06:43:31;;;;;;;7.40;6.93;;;2.20;99.90;;;;;;4984126;28;20049;-75
2022/11/25 06:46:08;;;;;;;4.03;2.80;;;2.20;99.90;;;;;;5001832;28;20576;-75
2022/11/25 06:48:34;;;;;;;0.00;0.00;;;2.30;99.90;;;;;;5001576;28;20041;-75
2022/11/25 06:51:05;;;;;;;0.10;0.10;;;2.30;99.90;;;;;;5001839;28;20030;-75
2022/11/25 06:53:33;;;;;;;0.00;0.00;;;2.40;99.90;;;;;;5001913;28;20026;-74
2022/11/25 06:56:04;;;;;;;0.00;0.00;;;2.40;99.90;;;;;;5001345;28;20488;-75
2022/11/25 06:58:30;;;;;;;0.00;0.00;;;2.50;99.90;;;;;;5001873;28;20113;-76
2022/11/25 07:01:15;;;;;;;0.10;0.10;;;2.50;99.90;;;;;;5001576;28;20726;-75
2022/11/25 07:03:41;;;;;;;0.00;0.00;;;2.60;99.90;;;;;;5001734;28;20053;-75
2022/11/25 07:06:08;;;;;;;0.10;0.10;;;2.70;99.90;;;;;;5001260;28;20034;-75
2022/11/25 07:08:34;;;;;;;0.50;0.50;;;3.30;99.90;;;;;;5001992;28;20022;-75
2022/11/25 07:11:12;;;;;;;0.10;0.10;;;2.80;99.90;;;;;;5001376;28;20493;-75
2022/11/25 07:13:37;;;;;;;0.00;0.00;;;2.90;99.90;;;;;;4998753;28;20331;-75
2022/11/25 07:16:05;;;;;;;0.10;0.10;;;2.90;99.90;;;;;;5002130;28;20563;-75
2022/11/25 07:18:32;;;;;;;0.00;0.00;;;3.00;99.90;;;;;;4983012;28;20030;-75
2022/11/25 07:21:03;;;;;;;0.10;0.10;;;3.10;99.90;;;;;;5002015;28;20097;-75
2022/11/25 07:23:29;;;;;;;0.38;0.38;;;3.10;99.90;;;;;;5001631;28;20014;-75
2022/11/25 07:26:00;;;;;;;0.08;0.08;;;3.20;99.90;;;;;;5001783;28;20032;-75
2022/11/25 07:28:26;;;;;;;0.10;0.10;;;2.50;99.90;;;;;;5001770;28;20325;-75
2022/11/25 07:30:52;;;;;;;22.33;21.15;;;;;;;;;;5001806;28;20026;-74
2022/11/25 07:33:18;;;;;;;0.00;0.00;;;3.00;99.90;;;;;;5001709;28;20022;-75
2022/11/25 07:35:44;;;;;;;0.10;0.10;;;3.00;99.90;;;;;;5001447;28;20022;-75
2022/11/25 07:38:09;;;;;;;0.00;0.00;;;3.00;99.90;;;;;;4985206;28;20018;-75
2022/11/25 07:40:35;;;;;;;3.80;3.60;;;2.70;99.90;;;;;;5001178;28;20267;-74
2022/11/25 07:43:01;;;;;;;0.00;0.00;;;2.80;99.90;;;;;;5001227;28;20045;-75
2022/11/25 07:45:26;;;;;;;3.45;3.30;;;2.70;99.90;;;;;;5002139;28;20464;-74
2022/11/25 07:47:52;;;;;;;0.00;0.00;;;2.80;99.90;;;;;;5001757;28;20580;-75
2022/11/25 07:50:18;;;;;;;0.30;0.30;;;2.90;99.90;;;;;;4985855;28;20355;-75
2022/11/25 07:52:44;;;;;;;16.67;10.50;;;3.00;99.90;;;;;;4985263;28;20100;-75
2022/11/25 07:55:09;;;;;;;0.00;0.00;;;3.10;99.90;;;;;;5001687;28;20018;-75
2022/11/25 07:57:35;;;;;;;0.10;0.10;;;3.20;99.90;;;;;;5003177;28;20512;-75
2022/11/25 08:00:01;;;;;;;0.10;0.10;;;;;;;;;;5002641;28;20150;-75
2022/11/25 08:02:27;;;;;;;0.03;0.03;;;3.40;99.90;;;;;;5003294;28;20041;-75
2022/11/25 08:04:53;;;;;;;0.10;0.10;;;;;;;;;;4986572;28;20022;-75
2022/11/25 08:07:19;;;;;;;0.10;0.10;;;3.50;99.90;;;;;;5006352;28;20054;-75
2022/11/25 08:09:44;;;;;;;10.85;10.45;;;3.60;99.90;;;;;;5008461;28;20041;-75
2022/11/25 08:12:10;;;;;;;0.10;0.10;;;3.70;99.90;;;;;;5007613;28;20049;-75
2022/11/25 08:14:36;;;;;;;0.10;0.10;;;3.80;99.90;;;;;;4987581;28;20298;-75
2022/11/25 08:17:04;;;;;;;4.28;4.15;;;3.80;99.90;;;;;;5002389;28;20053;-75
2022/11/25 08:19:31;;;;;;;3.90;3.75;;;3.80;99.90;;;;;;5001211;28;20022;-75
2022/11/25 08:21:56;;;;;;;0.00;0.00;;;3.80;99.90;;;;;;4983847;28;20073;-75
2022/11/25 08:24:22;;;;;;;8.88;8.50;;;3.90;99.90;;;;;;5000715;28;20061;-75
2022/11/25 08:26:48;;;;;;;0.10;0.10;;;3.90;99.90;;;;;;5000873;28;20092;-75
2022/11/25 08:29:17;;;;;;;0.40;0.40;;;4.20;99.90;;;;;;5001923;28;20022;-74
2022/11/25 08:31:43;;;;;;;2.47;2.38;;;4.20;99.90;;;;;;4982568;28;20064;-75
2022/11/25 08:34:20;;;;;;;0.13;0.13;;;4.40;99.90;;;;;;4999096;28;20038;-75
2022/11/25 08:36:46;;;;;;;0.10;0.10;;;6.70;99.90;;;;;;5000240;28;20029;-75
2022/11/25 08:39:15;;;;;;;0.10;0.10;;;4.50;99.90;;;;;;5000364;28;20053;-75
2022/11/25 08:41:41;;;;;;;85.78;79.72;;;4.50;99.90;;;;;;5000656;28;20014;-75
2022/11/25 08:44:08;;;;;;;6.22;5.95;;;4.30;99.90;;;;;;5000870;28;20085;-74
2022/11/25 08:46:37;;;;;;;0.13;0.13;;;4.20;99.90;;;;;;4987599;28;20018;-75
2022/11/25 08:49:04;;;;;;;22.27;16.38;;;4.20;99.90;;;;;;4985925;28;20037;-74
2022/11/25 08:51:33;;;;;;;19.58;17.92;;;4.20;99.90;;;;;;5001861;28;20033;-75
2022/11/25 08:54:00;;;;;;;0.08;0.08;;;4.30;99.90;;;;;;5001713;28;20022;-74
2022/11/25 08:56:27;;;;;;;0.10;0.10;;;4.40;99.90;;;;;;5000904;28;20050;-75
2022/11/25 08:58:54;;;;;;;23.73;21.92;;;4.50;99.90;;;;;;4983343;28;20026;-75
2022/11/25 09:01:21;;;;;;;0.20;0.20;;;4.50;99.90;;;;;;5000290;28;20021;-75
2022/11/25 09:03:49;;;;;;;0.10;0.10;;;4.70;99.90;;;;;;5000821;28;20010;-75
2022/11/25 09:06:16;;;;;;;0.10;0.10;;;4.60;99.90;;;;;;4983563;28;20042;-75
2022/11/25 09:08:43;;;;;;;2.10;2.00;;;1.80;99.90;;;;;;5000537;28;20018;-75
2022/11/25 09:11:09;;;;;;;0.10;0.10;;;4.60;99.90;;;;;;4999871;28;20212;-75
2022/11/25 09:13:35;;;;;;;0.55;0.55;;;4.60;99.90;;;;;;5001177;28;20681;-74
2022/11/25 09:16:02;;;;;;;2.70;2.60;;;4.50;99.90;;;;;;5000292;28;20222;-75
2022/11/25 09:18:29;;;;;;;1.75;1.65;;;6.40;99.90;;;;;;5000700;28;20034;-75
2022/11/25 09:20:59;;;;;;;0.10;0.10;;;4.60;99.90;;;;;;5000492;28;20029;-75
2022/11/25 09:23:25;;;;;;;0.00;0.00;;;4.60;99.90;;;;;;5000992;28;20113;-75
2022/11/25 09:25:55;;;;;;;0.22;0.22;;;4.80;99.90;;;;;;4983610;28;20025;-75
2022/11/25 09:28:22;;;;;;;19.25;18.27;;;4.80;99.90;;;;;;5001210;28;20045;-74
2022/11/25 09:30:48;;;;;;;0.00;0.00;;;4.90;99.90;;;;;;4983236;28;20030;-75
2022/11/25 09:33:16;;;;;;;0.10;0.10;;;4.90;99.90;;;;;;5000113;28;20678;-74
2022/11/25 09:35:42;;;;;;;0.10;0.10;;;4.80;99.90;;;;;;4983601;28;20520;-75
2022/11/25 09:38:07;;;;;;;0.10;0.10;;;5.20;99.90;;;;;;4999838;28;20022;-75
2022/11/25 09:40:39;;;;;;;0.00;0.00;;;5.20;99.90;;;;;;4999485;28;20715;-75
2022/11/25 09:46:43;;;;;;;0.00;0.00;;;5.30;99.90;;;;;;4999943;28;20573;-75
2022/11/25 09:49:39;;;;;;;0.10;0.10;;;5.40;99.90;;;;;;4999764;28;20554;-75
2022/11/25 09:52:18;;;;;;;0.10;0.10;;;5.50;99.90;;;;;;4999245;28;20086;-75
2022/11/25 09:54:57;;;;;;;0.10;0.10;;;5.40;99.90;;;;;;4983400;28;20033;-75
2022/11/25 09:57:44;;;;;;;0.55;0.55;;;5.50;99.90;;;;;;4982782;28;20022;-75
2022/11/25 10:00:11;;;;;;;0.35;0.35;;;5.50;99.90;;;;;;4999775;28;20057;-74
2022/11/25 10:03:05;;;;;;;5.68;5.40;;;5.70;99.90;;;;;;4999386;28;20038;-75
2022/11/25 10:05:40;;;;;;;0.00;0.00;;;5.90;99.90;;;;;;4999117;28;20050;-75
2022/11/25 10:08:18;;;;;;;0.17;0.17;;;5.90;99.90;;;;;;5000798;28;20025;-75
2022/11/25 10:10:47;;;;;;;0.10;0.10;;;5.90;99.90;;;;;;5004517;28;20053;-74
2022/11/25 10:13:22;;;;;;;0.10;0.10;;;6.00;99.90;;;;;;5002918;28;20025;-75
2022/11/25 10:15:49;;;;;;;0.10;0.10;;;6.00;99.90;;;;;;5001066;28;20018;-75
2022/11/25 10:18:25;;;;;;;28.85;7.43;;;6.10;99.90;;;;;;4999893;28;20105;-75
2022/11/25 10:20:53;;;;;;;2.30;2.20;;;6.10;99.90;;;;;;4999584;28;20024;-75
2022/11/25 10:23:38;;;;;;;0.75;0.75;;;6.10;99.90;;;;;;4984862;28;20528;-75
2022/11/25 10:26:16;;;;;;;0.32;0.32;;;6.10;99.90;;;;;;4999842;28;20014;-75
2022/11/25 10:29:19;;;;;;;7.60;6.85;;;6.30;99.90;;;;;;4999661;28;20535;-75
2022/11/25 10:31:45;;;;;;;0.10;0.10;;;6.30;99.90;;;;;;4999187;28;20107;-74
2022/11/25 10:34:32;;;;;;;0.10;0.10;;;6.50;99.90;;;;;;5000864;28;20101;-75
2022/11/25 10:37:01;;;;;;;31.13;30.13;;;6.70;99.90;;;;;;5001784;28;20026;-75
2022/11/25 10:39:30;;;;;;;0.30;0.30;;;6.90;99.90;;;;;;5003993;28;20038;-75
2022/11/25 10:42:05;;;;;;;0.10;0.10;;;7.10;99.90;;;;;;5004394;28;20093;-75
2022/11/25 10:44:36;;;;;;;0.30;0.30;;;6.40;99.90;;;;;;5002513;28;20219;-75
2022/11/25 10:47:23;;;;;;;0.20;0.20;;;7.30;99.90;;;;;;5004214;28;20030;-75
2022/11/25 10:50:26;;;;;;;12.32;11.40;;;7.30;99.90;;;;;;5003668;28;20522;-74
2022/11/25 10:52:53;;;;;;;0.10;0.10;;;7.40;99.90;;;;;;5002275;28;20482;-74
2022/11/25 10:55:30;;;;;;;2.28;2.17;;;7.50;99.90;;;;;;5001626;28;20402;-74
2022/11/25 10:57:56;;;;;;;0.65;0.65;;;7.00;99.90;;;;;;4986275;28;20034;-75
2022/11/25 11:00:35;;;;;;;10.85;10.30;;;7.20;99.90;;;;;;4986315;28;20026;-75
2022/11/25 11:03:23;;;;;;;0.38;0.38;;;7.40;99.90;;;;;;4985792;28;20045;-75
2022/11/25 11:05:51;;;;;;;0.10;0.10;;;7.70;99.90;;;;;;5003064;28;20046;-75
2022/11/25 11:08:21;;;;;;;2.28;2.17;;;7.80;99.90;;;;;;5003193;28;20021;-74
2022/11/25 11:11:07;;;;;;;1.33;1.33;;;8.00;99.90;;;;;;4985798;28;20060;-75
2022/11/25 11:13:33;;;;;;;6.10;5.88;;;8.00;99.90;;;;;;5003349;28;20030;-75
2022/11/25 11:15:59;;;;;;;2.70;2.60;;;7.80;99.90;;;;;;5004073;28;20580;-75
2022/11/25 11:18:29;;;;;;;0.70;0.70;;;7.80;99.90;;;;;;4985245;28;20145;-75
2022/11/25 11:20:58;;;;;;;0.30;0.30;;;8.10;99.90;;;;;;5004478;28;20026;-75
2022/11/25 11:23:25;;;;;;;1.52;1.52;;;8.00;99.90;;;;;;4994249;28;20026;-77
2022/11/25 11:25:59;;;;;;;0.20;0.20;;;8.10;99.90;;;;;;4993062;28;20021;-75
2022/11/25 11:28:35;;;;;;;2.15;2.10;;;8.00;99.90;;;;;;5011801;28;20029;-75
2022/11/25 11:31:25;;;;;;;20.67;19.63;;;8.10;99.90;;;;;;5013259;28;20049;-75
2022/11/25 11:34:19;;;;;;;0.32;0.32;;;8.10;99.90;;;;;;5012555;28;20095;-75
2022/11/25 11:37:05;;;;;;;0.85;0.85;;;7.90;99.90;;;;;;5007971;28;20051;-74
2022/11/25 11:39:49;;;;;;;23.48;8.18;;;8.00;99.90;;;;;;4912550;29;20024;-77
2022/11/25 11:42:23;;;;;;;;;;;8.00;99.90;;;;;;4909910;29;20036;-75
2022/11/25 11:45:05;;;;;;;0.95;0.95;;;9.90;99.90;;;;;;4888687;29;19946;-75
2022/11/25 11:48:02;;;;;;;0.73;0.73;;;10.70;99.90;;;;;;4904621;29;20028;-75
2022/11/25 11:50:29;;;;;;;0.10;0.10;;;;;;;;;;4903181;29;20614;-75
2022/11/25 11:53:00;;;;;;;0.95;0.95;;;9.30;99.90;;;;;;4903233;29;20562;-75
2022/11/25 11:55:47;;;;;;;0.65;0.63;;;7.40;99.90;;;;;;4902915;29;20581;-75
2022/11/25 11:58:36;;;;;;;5.10;4.90;;;7.60;99.90;;;;;;4888213;29;20697;-75
2022/11/25 12:01:21;;;;;;;2.70;2.50;;;7.50;99.90;;;;;;4902911;29;20508;-75
2022/11/25 12:04:25;;;;;;;0.90;0.90;;;7.70;99.90;;;;;;4902892;29;20063;-76
2022/11/25 12:07:07;;;;;;;0.15;0.15;;;8.00;99.90;;;;;;4887144;29;20040;-75
2022/11/25 12:09:42;;;;;;;0.28;0.28;;;7.70;99.90;;;;;;4902750;29;20072;-75
2022/11/25 12:12:12;;;;;;;16.33;15.15;;;5.50;99.90;;;;;;4902654;29;20132;-75
2022/11/25 12:14:42;;;;;;;0.20;0.20;;;7.50;99.90;;;;;;4902017;29;20380;-75
2022/11/25 12:17:34;;;;;;;0.20;0.20;;;8.00;99.90;;;;;;4970185;28;20053;-75
2022/11/25 12:20:35;;;;;;;4.32;4.03;;;8.00;99.90;;;;;;5001000;28;20030;-75
2022/11/25 12:23:21;;;;;;;0.25;0.25;;;8.20;99.90;;;;;;4984154;28;20026;-75
2022/11/25 12:25:50;;;;;;;1.42;1.42;;;8.20;99.90;;;;;;5001214;28;20014;-75
2022/11/25 12:28:25;;;;;;;6.35;6.00;;;8.20;99.90;;;;;;4983802;28;20045;-75
2022/11/25 12:31:08;;;;;;;0.10;0.10;;;8.20;99.90;;;;;;5001132;28;20034;-75
2022/11/25 12:34:03;;;;;;;1.60;1.55;;;8.60;99.90;;;;;;5000647;28;20080;-75
2022/11/25 12:36:33;;;;;;;0.20;0.20;;;8.80;99.90;;;;;;5001161;28;20615;-75
2022/11/25 12:39:14;;;;;;;1.65;1.60;;;9.10;99.90;;;;;;5000847;28;20030;-75
2022/11/25 12:41:41;;;;;;;0.20;0.20;;;;;;;;;;5000366;28;20037;-75
2022/11/25 12:44:22;;;;;;;5.03;4.68;;;9.00;99.90;;;;;;5000906;28;20663;-74
2022/11/25 12:46:50;;;;;;;1.45;1.45;;;8.80;99.90;;;;;;4999650;28;20034;-74
2022/11/25 12:49:18;;;;;;;0.38;0.38;;;8.90;99.90;;;;;;4983338;28;20034;-75
2022/11/25 12:51:58;;;;;;;0.20;0.20;;;8.90;99.90;;;;;;5007299;28;20156;-74
2022/11/25 12:54:33;;;;;;;2.10;2.08;;;8.80;99.90;;;;;;5003683;28;20071;-75
2022/11/25 12:57:11;;;;;;;20.77;18.73;;;9.00;99.90;;;;;;5003592;28;20022;-75
2022/11/25 13:00:06;;;;;;;12.60;9.43;;;9.00;99.90;;;;;;5003238;28;20026;-75
2022/11/25 13:02:54;;;;;;;18.33;17.15;;;8.90;99.90;;;;;;4984711;28;20602;-75
2022/11/25 13:05:53;;;;;;;3.13;2.95;;;8.90;99.90;;;;;;5001269;28;20038;-75
2022/11/25 13:08:56;;;;;;;12.02;11.50;;;8.90;99.90;;;;;;5001927;28;20118;-75
2022/11/25 13:11:27;;;;;;;1.48;1.38;;;8.60;99.90;;;;;;4983581;28;20033;-75
2022/11/25 13:14:27;;;;;;;1.63;1.55;;;8.70;99.90;;;;;;5001814;28;20015;-74
2022/11/25 13:16:55;;;;;;;0.95;0.95;;;8.70;99.90;;;;;;5002985;28;20049;-75
2022/11/25 13:19:23;;;;;;;5.05;4.85;;;8.40;99.90;;;;;;5003296;28;20104;-75
2022/11/25 13:22:21;;;;;;;0.40;0.40;;;8.40;99.90;;;;;;5002994;28;20030;-75
2022/11/25 13:24:47;;;;;;;21.00;19.83;;;8.40;99.90;;;;;;4969639;28;20026;-75
2022/11/25 13:27:30;;;;;;;0.10;0.10;;;8.20;99.90;;;;;;5002172;28;20246;-75